sensor_id;sensor_type;location;lat;lon;timestamp;P1;durP1;ratioP1;P2;durP2;ratioP2
77010;SDS011;65945;53.148;17.956;2023-06-22T00:02:19;13.70;;;10.40;;
77010;SDS011;65945;53.148;17.956;2023-06-22T00:04:46;14.70;;;11.30;;
77010;SDS011;65945;53.148;17.956;2023-06-22T00:07:12;15.10;;;11.50;;
77010;SDS011;65945;53.148;17.956;2023-06-22T00:09:39;14.30;;;11.50;;
77010;SDS011;65945;53.148;17.956;2023-06-22T00:12:06;18.20;;;12.60;;
77010;SDS011;65945;53.148;17.956;2023-06-22T00:14:33;16.10;;;12.00;;
77010;SDS011;65945;53.148;17.956;2023-06-22T00:16:59;15.80;;;12.90;;
77010;SDS011;65945;53.148;17.956;2023-06-22T00:19:26;17.90;;;13.90;;
77010;SDS011;65945;53.148;17.956;2023-06-22T00:21:52;20.10;;;16.50;;
77010;SDS011;65945;53.148;17.956;2023-06-22T00:24:20;29.60;;;23.30;;
77010;SDS011;65945;53.148;17.956;2023-06-22T00:26:47;32.50;;;26.40;;
77010;SDS011;65945;53.148;17.956;2023-06-22T00:29:16;27.00;;;21.30;;
77010;SDS011;65945;53.148;17.956;2023-06-22T00:31:43;26.60;;;21.50;;
77010;SDS011;65945;53.148;17.956;2023-06-22T00:34:09;33.10;;;25.80;;
77010;SDS011;65945;53.148;17.956;2023-06-22T00:36:36;36.90;;;29.90;;
77010;SDS011;65945;53.148;17.956;2023-06-22T00:39:03;43.10;;;32.60;;
77010;SDS011;65945;53.148;17.956;2023-06-22T00:41:30;49.40;;;36.80;;
77010;SDS011;65945;53.148;17.956;2023-06-22T00:43:57;47.20;;;33.20;;
77010;SDS011;65945;53.148;17.956;2023-06-22T00:46:24;45.80;;;34.70;;
77010;SDS011;65945;53.148;17.956;2023-06-22T00:48:51;40.50;;;31.50;;
77010;SDS011;65945;53.148;17.956;2023-06-22T00:51:18;41.20;;;29.80;;
77010;SDS011;65945;53.148;17.956;2023-06-22T00:53:50;37.90;;;26.50;;
77010;SDS011;65945;53.148;17.956;2023-06-22T00:56:19;34.10;;;24.80;;
77010;SDS011;65945;53.148;17.956;2023-06-22T00:58:50;33.50;;;23.60;;
77010;SDS011;65945;53.148;17.956;2023-06-22T01:01:19;32.30;;;23.10;;
77010;SDS011;65945;53.148;17.956;2023-06-22T01:03:50;33.00;;;22.80;;
77010;SDS011;65945;53.148;17.956;2023-06-22T01:06:19;28.60;;;21.70;;
77010;SDS011;65945;53.148;17.956;2023-06-22T01:09:02;24.70;;;19.60;;
77010;SDS011;65945;53.148;17.956;2023-06-22T01:11:39;24.20;;;16.90;;
77010;SDS011;65945;53.148;17.956;2023-06-22T01:16:51;19.20;;;12.60;;
77010;SDS011;65945;53.148;17.956;2023-06-22T01:22:10;15.30;;;10.40;;
77010;SDS011;65945;53.148;17.956;2023-06-22T01:24:45;11.70;;;9.50;;
77010;SDS011;65945;53.148;17.956;2023-06-22T01:27:28;12.30;;;9.90;;
77010;SDS011;65945;53.148;17.956;2023-06-22T01:30:03;13.10;;;9.10;;
77010;SDS011;65945;53.148;17.956;2023-06-22T01:32:34;11.50;;;8.70;;
77010;SDS011;65945;53.148;17.956;2023-06-22T01:35:05;11.80;;;8.60;;
77010;SDS011;65945;53.148;17.956;2023-06-22T01:37:33;10.30;;;8.50;;
77010;SDS011;65945;53.148;17.956;2023-06-22T01:40:02;10.50;;;8.30;;
77010;SDS011;65945;53.148;17.956;2023-06-22T01:42:32;11.40;;;7.80;;
77010;SDS011;65945;53.148;17.956;2023-06-22T01:45:00;15.10;;;8.60;;
77010;SDS011;65945;53.148;17.956;2023-06-22T01:47:28;11.30;;;7.90;;
77010;SDS011;65945;53.148;17.956;2023-06-22T01:49:56;12.80;;;8.60;;
77010;SDS011;65945;53.148;17.956;2023-06-22T01:52:23;9.60;;;7.90;;
77010;SDS011;65945;53.148;17.956;2023-06-22T01:54:50;10.50;;;7.40;;
77010;SDS011;65945;53.148;17.956;2023-06-22T01:57:16;10.30;;;7.80;;
77010;SDS011;65945;53.148;17.956;2023-06-22T01:59:48;12.80;;;8.00;;
77010;SDS011;65945;53.148;17.956;2023-06-22T02:02:24;14.00;;;7.30;;
77010;SDS011;65945;53.148;17.956;2023-06-22T02:04:57;14.50;;;8.00;;
77010;SDS011;65945;53.148;17.956;2023-06-22T02:07:30;8.90;;;7.30;;
77010;SDS011;65945;53.148;17.956;2023-06-22T02:10:02;13.50;;;7.50;;
77010;SDS011;65945;53.148;17.956;2023-06-22T02:12:32;11.10;;;7.10;;
77010;SDS011;65945;53.148;17.956;2023-06-22T02:15:01;11.20;;;7.90;;
77010;SDS011;65945;53.148;17.956;2023-06-22T02:17:29;11.10;;;7.50;;
77010;SDS011;65945;53.148;17.956;2023-06-22T02:20:03;12.70;;;8.30;;
77010;SDS011;65945;53.148;17.956;2023-06-22T02:22:35;10.70;;;7.40;;
77010;SDS011;65945;53.148;17.956;2023-06-22T02:25:02;9.80;;;7.90;;
77010;SDS011;65945;53.148;17.956;2023-06-22T02:27:29;10.40;;;7.90;;
77010;SDS011;65945;53.148;17.956;2023-06-22T02:29:56;11.30;;;8.40;;
77010;SDS011;65945;53.148;17.956;2023-06-22T02:32:23;12.00;;;8.40;;
77010;SDS011;65945;53.148;17.956;2023-06-22T02:34:50;12.20;;;8.30;;
77010;SDS011;65945;53.148;17.956;2023-06-22T02:37:18;11.30;;;7.40;;
77010;SDS011;65945;53.148;17.956;2023-06-22T02:39:45;13.60;;;7.20;;
77010;SDS011;65945;53.148;17.956;2023-06-22T02:42:11;11.90;;;7.30;;
77010;SDS011;65945;53.148;17.956;2023-06-22T02:44:38;10.10;;;7.00;;
77010;SDS011;65945;53.148;17.956;2023-06-22T02:47:04;11.50;;;6.60;;
77010;SDS011;65945;53.148;17.956;2023-06-22T02:49:31;10.00;;;6.20;;
77010;SDS011;65945;53.148;17.956;2023-06-22T02:51:58;9.20;;;6.00;;
77010;SDS011;65945;53.148;17.956;2023-06-22T02:54:25;8.30;;;5.40;;
77010;SDS011;65945;53.148;17.956;2023-06-22T02:56:53;7.80;;;5.10;;
77010;SDS011;65945;53.148;17.956;2023-06-22T02:59:20;7.20;;;5.50;;
77010;SDS011;65945;53.148;17.956;2023-06-22T03:01:51;8.60;;;5.10;;
77010;SDS011;65945;53.148;17.956;2023-06-22T03:04:24;7.80;;;5.40;;
77010;SDS011;65945;53.148;17.956;2023-06-22T03:06:51;9.50;;;5.30;;
77010;SDS011;65945;53.148;17.956;2023-06-22T03:09:17;7.60;;;5.20;;
77010;SDS011;65945;53.148;17.956;2023-06-22T03:11:44;8.00;;;4.60;;
77010;SDS011;65945;53.148;17.956;2023-06-22T03:14:11;8.10;;;5.40;;
77010;SDS011;65945;53.148;17.956;2023-06-22T03:16:37;9.10;;;5.40;;
77010;SDS011;65945;53.148;17.956;2023-06-22T03:19:04;9.70;;;4.90;;
77010;SDS011;65945;53.148;17.956;2023-06-22T03:21:30;7.30;;;5.10;;
77010;SDS011;65945;53.148;17.956;2023-06-22T03:24:00;9.50;;;5.30;;
77010;SDS011;65945;53.148;17.956;2023-06-22T03:26:27;8.80;;;4.70;;
77010;SDS011;65945;53.148;17.956;2023-06-22T03:28:53;8.20;;;5.10;;
77010;SDS011;65945;53.148;17.956;2023-06-22T03:31:20;8.10;;;5.20;;
77010;SDS011;65945;53.148;17.956;2023-06-22T03:33:48;8.10;;;5.30;;
77010;SDS011;65945;53.148;17.956;2023-06-22T03:36:16;9.30;;;5.20;;
77010;SDS011;65945;53.148;17.956;2023-06-22T03:38:47;8.90;;;5.00;;
77010;SDS011;65945;53.148;17.956;2023-06-22T03:41:14;7.60;;;4.90;;
77010;SDS011;65945;53.148;17.956;2023-06-22T03:43:41;9.70;;;4.60;;
77010;SDS011;65945;53.148;17.956;2023-06-22T03:46:08;7.60;;;4.30;;
77010;SDS011;65945;53.148;17.956;2023-06-22T03:48:35;7.60;;;3.80;;
77010;SDS011;65945;53.148;17.956;2023-06-22T03:51:02;9.70;;;4.10;;
77010;SDS011;65945;53.148;17.956;2023-06-22T03:53:29;7.90;;;4.10;;
77010;SDS011;65945;53.148;17.956;2023-06-22T03:55:56;8.00;;;4.70;;
77010;SDS011;65945;53.148;17.956;2023-06-22T03:58:22;8.30;;;3.70;;
77010;SDS011;65945;53.148;17.956;2023-06-22T04:00:50;11.80;;;4.20;;
77010;SDS011;65945;53.148;17.956;2023-06-22T04:03:17;10.60;;;4.60;;
77010;SDS011;65945;53.148;17.956;2023-06-22T04:05:45;10.50;;;4.30;;
77010;SDS011;65945;53.148;17.956;2023-06-22T04:08:12;6.00;;;4.10;;
77010;SDS011;65945;53.148;17.956;2023-06-22T04:10:39;7.80;;;3.90;;
77010;SDS011;65945;53.148;17.956;2023-06-22T04:13:06;6.70;;;4.00;;
77010;SDS011;65945;53.148;17.956;2023-06-22T04:15:33;7.90;;;4.10;;
77010;SDS011;65945;53.148;17.956;2023-06-22T04:18:00;9.60;;;4.40;;
77010;SDS011;65945;53.148;17.956;2023-06-22T04:20:26;7.30;;;4.10;;
77010;SDS011;65945;53.148;17.956;2023-06-22T04:22:53;7.20;;;4.00;;
77010;SDS011;65945;53.148;17.956;2023-06-22T04:25:20;9.40;;;4.40;;
77010;SDS011;65945;53.148;17.956;2023-06-22T04:27:48;7.70;;;4.40;;
77010;SDS011;65945;53.148;17.956;2023-06-22T04:30:15;7.20;;;4.30;;
77010;SDS011;65945;53.148;17.956;2023-06-22T04:32:43;11.20;;;4.70;;
77010;SDS011;65945;53.148;17.956;2023-06-22T04:35:10;8.80;;;4.10;;
77010;SDS011;65945;53.148;17.956;2023-06-22T04:37:37;11.10;;;4.60;;
77010;SDS011;65945;53.148;17.956;2023-06-22T04:40:05;10.00;;;4.30;;
77010;SDS011;65945;53.148;17.956;2023-06-22T04:42:33;9.80;;;4.10;;
77010;SDS011;65945;53.148;17.956;2023-06-22T04:45:01;6.60;;;4.20;;
77010;SDS011;65945;53.148;17.956;2023-06-22T04:47:28;10.10;;;4.60;;
77010;SDS011;65945;53.148;17.956;2023-06-22T04:49:55;7.30;;;4.10;;
77010;SDS011;65945;53.148;17.956;2023-06-22T04:52:21;7.50;;;3.80;;
77010;SDS011;65945;53.148;17.956;2023-06-22T04:54:48;5.50;;;3.90;;
77010;SDS011;65945;53.148;17.956;2023-06-22T04:57:17;7.80;;;4.20;;
77010;SDS011;65945;53.148;17.956;2023-06-22T04:59:43;6.80;;;3.70;;
77010;SDS011;65945;53.148;17.956;2023-06-22T05:02:10;7.00;;;3.60;;
77010;SDS011;65945;53.148;17.956;2023-06-22T05:04:37;9.00;;;4.60;;
77010;SDS011;65945;53.148;17.956;2023-06-22T05:07:04;9.20;;;3.70;;
77010;SDS011;65945;53.148;17.956;2023-06-22T05:09:31;8.30;;;4.00;;
77010;SDS011;65945;53.148;17.956;2023-06-22T05:12:00;8.60;;;3.90;;
77010;SDS011;65945;53.148;17.956;2023-06-22T05:14:29;12.30;;;4.50;;
77010;SDS011;65945;53.148;17.956;2023-06-22T05:16:56;11.10;;;4.20;;
77010;SDS011;65945;53.148;17.956;2023-06-22T05:19:25;9.10;;;3.90;;
77010;SDS011;65945;53.148;17.956;2023-06-22T05:21:57;7.50;;;3.80;;
77010;SDS011;65945;53.148;17.956;2023-06-22T05:24:24;7.20;;;4.40;;
77010;SDS011;65945;53.148;17.956;2023-06-22T05:26:50;8.80;;;3.70;;
77010;SDS011;65945;53.148;17.956;2023-06-22T05:29:17;7.20;;;4.00;;
77010;SDS011;65945;53.148;17.956;2023-06-22T05:31:44;7.60;;;4.20;;
77010;SDS011;65945;53.148;17.956;2023-06-22T05:34:10;7.80;;;3.70;;
77010;SDS011;65945;53.148;17.956;2023-06-22T05:36:37;9.10;;;3.60;;
77010;SDS011;65945;53.148;17.956;2023-06-22T05:39:13;6.70;;;4.20;;
77010;SDS011;65945;53.148;17.956;2023-06-22T05:41:41;6.80;;;3.70;;
77010;SDS011;65945;53.148;17.956;2023-06-22T05:44:09;7.40;;;3.60;;
77010;SDS011;65945;53.148;17.956;2023-06-22T05:46:36;10.70;;;4.20;;
77010;SDS011;65945;53.148;17.956;2023-06-22T05:49:03;10.10;;;4.00;;
77010;SDS011;65945;53.148;17.956;2023-06-22T05:51:29;12.60;;;3.70;;
77010;SDS011;65945;53.148;17.956;2023-06-22T05:53:56;7.50;;;3.40;;
77010;SDS011;65945;53.148;17.956;2023-06-22T05:56:23;9.00;;;3.50;;
77010;SDS011;65945;53.148;17.956;2023-06-22T05:58:49;7.90;;;3.80;;
77010;SDS011;65945;53.148;17.956;2023-06-22T06:01:16;7.20;;;3.50;;
77010;SDS011;65945;53.148;17.956;2023-06-22T06:03:42;6.20;;;3.20;;
77010;SDS011;65945;53.148;17.956;2023-06-22T06:06:10;7.40;;;3.60;;
77010;SDS011;65945;53.148;17.956;2023-06-22T06:08:39;7.70;;;3.60;;
77010;SDS011;65945;53.148;17.956;2023-06-22T06:11:06;8.00;;;3.40;;
77010;SDS011;65945;53.148;17.956;2023-06-22T06:13:32;6.20;;;2.90;;
77010;SDS011;65945;53.148;17.956;2023-06-22T06:15:59;6.30;;;3.00;;
77010;SDS011;65945;53.148;17.956;2023-06-22T06:18:26;6.50;;;2.60;;
77010;SDS011;65945;53.148;17.956;2023-06-22T06:20:52;5.50;;;2.60;;
77010;SDS011;65945;53.148;17.956;2023-06-22T06:23:19;8.90;;;2.60;;
77010;SDS011;65945;53.148;17.956;2023-06-22T06:25:45;5.00;;;2.50;;
77010;SDS011;65945;53.148;17.956;2023-06-22T06:28:12;5.50;;;2.50;;
77010;SDS011;65945;53.148;17.956;2023-06-22T06:30:39;5.00;;;2.50;;
77010;SDS011;65945;53.148;17.956;2023-06-22T06:33:05;6.60;;;2.50;;
77010;SDS011;65945;53.148;17.956;2023-06-22T06:35:35;6.70;;;2.10;;
77010;SDS011;65945;53.148;17.956;2023-06-22T06:38:02;4.80;;;2.40;;
77010;SDS011;65945;53.148;17.956;2023-06-22T06:40:28;4.70;;;2.40;;
77010;SDS011;65945;53.148;17.956;2023-06-22T06:42:55;7.40;;;2.20;;
77010;SDS011;65945;53.148;17.956;2023-06-22T06:45:23;4.30;;;2.00;;
77010;SDS011;65945;53.148;17.956;2023-06-22T06:47:50;6.00;;;2.30;;
77010;SDS011;65945;53.148;17.956;2023-06-22T06:50:18;4.20;;;2.00;;
77010;SDS011;65945;53.148;17.956;2023-06-22T06:52:45;3.50;;;2.10;;
77010;SDS011;65945;53.148;17.956;2023-06-22T06:55:12;5.90;;;2.40;;
77010;SDS011;65945;53.148;17.956;2023-06-22T06:57:40;4.10;;;2.20;;
77010;SDS011;65945;53.148;17.956;2023-06-22T07:00:09;2.90;;;1.90;;
77010;SDS011;65945;53.148;17.956;2023-06-22T07:02:38;6.00;;;2.40;;
77010;SDS011;65945;53.148;17.956;2023-06-22T07:05:09;4.70;;;2.50;;
77010;SDS011;65945;53.148;17.956;2023-06-22T07:07:37;11.10;;;2.70;;
77010;SDS011;65945;53.148;17.956;2023-06-22T07:10:05;4.00;;;2.10;;
77010;SDS011;65945;53.148;17.956;2023-06-22T07:12:32;4.70;;;2.30;;
77010;SDS011;65945;53.148;17.956;2023-06-22T07:15:06;6.10;;;2.40;;
77010;SDS011;65945;53.148;17.956;2023-06-22T07:17:37;3.50;;;2.00;;
77010;SDS011;65945;53.148;17.956;2023-06-22T07:20:07;6.10;;;1.90;;
77010;SDS011;65945;53.148;17.956;2023-06-22T07:22:36;5.80;;;2.20;;
77010;SDS011;65945;53.148;17.956;2023-06-22T07:25:08;5.00;;;2.60;;
77010;SDS011;65945;53.148;17.956;2023-06-22T07:27:39;5.80;;;2.20;;
77010;SDS011;65945;53.148;17.956;2023-06-22T07:30:09;4.80;;;2.40;;
77010;SDS011;65945;53.148;17.956;2023-06-22T07:32:37;3.90;;;2.10;;
77010;SDS011;65945;53.148;17.956;2023-06-22T07:35:04;6.50;;;2.50;;
77010;SDS011;65945;53.148;17.956;2023-06-22T07:37:31;5.20;;;2.40;;
77010;SDS011;65945;53.148;17.956;2023-06-22T07:39:59;9.20;;;2.80;;
77010;SDS011;65945;53.148;17.956;2023-06-22T07:42:26;4.70;;;2.00;;
77010;SDS011;65945;53.148;17.956;2023-06-22T07:44:53;3.50;;;2.00;;
77010;SDS011;65945;53.148;17.956;2023-06-22T07:47:20;3.60;;;2.20;;
77010;SDS011;65945;53.148;17.956;2023-06-22T07:49:51;4.30;;;1.70;;
77010;SDS011;65945;53.148;17.956;2023-06-22T07:52:21;4.70;;;2.30;;
77010;SDS011;65945;53.148;17.956;2023-06-22T07:54:47;3.50;;;2.00;;
77010;SDS011;65945;53.148;17.956;2023-06-22T07:57:14;5.60;;;2.00;;
77010;SDS011;65945;53.148;17.956;2023-06-22T07:59:41;4.30;;;2.00;;
77010;SDS011;65945;53.148;17.956;2023-06-22T08:02:07;6.80;;;2.10;;
77010;SDS011;65945;53.148;17.956;2023-06-22T08:04:35;3.70;;;2.10;;
77010;SDS011;65945;53.148;17.956;2023-06-22T08:07:02;5.40;;;2.20;;
77010;SDS011;65945;53.148;17.956;2023-06-22T08:09:30;6.10;;;1.70;;
77010;SDS011;65945;53.148;17.956;2023-06-22T08:11:58;9.10;;;2.00;;
77010;SDS011;65945;53.148;17.956;2023-06-22T08:14:25;3.60;;;1.80;;
77010;SDS011;65945;53.148;17.956;2023-06-22T08:16:52;3.70;;;1.80;;
77010;SDS011;65945;53.148;17.956;2023-06-22T08:19:19;3.50;;;2.00;;
77010;SDS011;65945;53.148;17.956;2023-06-22T08:21:46;3.30;;;1.70;;
77010;SDS011;65945;53.148;17.956;2023-06-22T08:24:13;11.70;;;2.30;;
77010;SDS011;65945;53.148;17.956;2023-06-22T08:26:39;5.60;;;2.20;;
77010;SDS011;65945;53.148;17.956;2023-06-22T08:29:06;5.90;;;2.40;;
77010;SDS011;65945;53.148;17.956;2023-06-22T08:31:32;5.70;;;2.10;;
77010;SDS011;65945;53.148;17.956;2023-06-22T08:34:02;4.90;;;2.40;;
77010;SDS011;65945;53.148;17.956;2023-06-22T08:36:28;3.40;;;2.00;;
77010;SDS011;65945;53.148;17.956;2023-06-22T08:38:58;4.30;;;2.10;;
77010;SDS011;65945;53.148;17.956;2023-06-22T08:41:27;5.20;;;2.40;;
77010;SDS011;65945;53.148;17.956;2023-06-22T08:43:54;4.10;;;1.90;;
77010;SDS011;65945;53.148;17.956;2023-06-22T08:46:22;3.00;;;2.00;;
77010;SDS011;65945;53.148;17.956;2023-06-22T08:48:51;7.00;;;2.00;;
77010;SDS011;65945;53.148;17.956;2023-06-22T08:51:17;4.40;;;2.00;;
77010;SDS011;65945;53.148;17.956;2023-06-22T08:53:44;4.20;;;1.90;;
77010;SDS011;65945;53.148;17.956;2023-06-22T08:56:11;4.60;;;2.10;;
77010;SDS011;65945;53.148;17.956;2023-06-22T08:58:38;5.90;;;2.00;;
77010;SDS011;65945;53.148;17.956;2023-06-22T09:01:04;3.90;;;2.00;;
77010;SDS011;65945;53.148;17.956;2023-06-22T09:03:31;4.70;;;1.60;;
77010;SDS011;65945;53.148;17.956;2023-06-22T09:05:59;3.60;;;1.60;;
77010;SDS011;65945;53.148;17.956;2023-06-22T09:08:25;4.70;;;2.20;;
77010;SDS011;65945;53.148;17.956;2023-06-22T09:10:52;5.00;;;2.00;;
77010;SDS011;65945;53.148;17.956;2023-06-22T09:13:19;6.10;;;2.00;;
77010;SDS011;65945;53.148;17.956;2023-06-22T09:15:45;8.00;;;1.90;;
77010;SDS011;65945;53.148;17.956;2023-06-22T09:18:13;3.60;;;1.80;;
77010;SDS011;65945;53.148;17.956;2023-06-22T09:20:40;3.70;;;1.60;;
77010;SDS011;65945;53.148;17.956;2023-06-22T09:23:06;4.30;;;1.90;;
77010;SDS011;65945;53.148;17.956;2023-06-22T09:25:33;2.70;;;1.50;;
77010;SDS011;65945;53.148;17.956;2023-06-22T09:27:59;2.80;;;1.60;;
77010;SDS011;65945;53.148;17.956;2023-06-22T09:30:26;4.20;;;1.90;;
77010;SDS011;65945;53.148;17.956;2023-06-22T09:32:53;3.70;;;1.90;;
77010;SDS011;65945;53.148;17.956;2023-06-22T09:35:20;3.10;;;1.40;;
77010;SDS011;65945;53.148;17.956;2023-06-22T09:37:47;4.10;;;1.80;;
77010;SDS011;65945;53.148;17.956;2023-06-22T09:40:14;8.00;;;2.20;;
77010;SDS011;65945;53.148;17.956;2023-06-22T09:42:43;2.40;;;1.50;;
77010;SDS011;65945;53.148;17.956;2023-06-22T09:45:09;4.30;;;1.50;;
77010;SDS011;65945;53.148;17.956;2023-06-22T09:47:36;3.60;;;1.60;;
77010;SDS011;65945;53.148;17.956;2023-06-22T09:50:03;2.70;;;1.50;;
77010;SDS011;65945;53.148;17.956;2023-06-22T09:52:31;2.40;;;1.50;;
77010;SDS011;65945;53.148;17.956;2023-06-22T09:54:58;3.30;;;1.50;;
77010;SDS011;65945;53.148;17.956;2023-06-22T09:57:24;3.40;;;1.50;;
77010;SDS011;65945;53.148;17.956;2023-06-22T09:59:51;2.80;;;1.30;;
77010;SDS011;65945;53.148;17.956;2023-06-22T10:02:17;3.60;;;1.80;;
77010;SDS011;65945;53.148;17.956;2023-06-22T10:04:44;2.60;;;1.30;;
77010;SDS011;65945;53.148;17.956;2023-06-22T10:07:11;2.90;;;1.50;;
77010;SDS011;65945;53.148;17.956;2023-06-22T10:09:37;2.90;;;1.80;;
77010;SDS011;65945;53.148;17.956;2023-06-22T10:12:04;3.00;;;1.70;;
77010;SDS011;65945;53.148;17.956;2023-06-22T10:14:31;2.70;;;1.60;;
77010;SDS011;65945;53.148;17.956;2023-06-22T10:16:58;3.50;;;1.70;;
77010;SDS011;65945;53.148;17.956;2023-06-22T10:19:24;3.30;;;1.90;;
77010;SDS011;65945;53.148;17.956;2023-06-22T10:21:51;2.70;;;1.80;;
77010;SDS011;65945;53.148;17.956;2023-06-22T10:24:18;3.30;;;1.70;;
77010;SDS011;65945;53.148;17.956;2023-06-22T10:26:45;5.90;;;2.10;;
77010;SDS011;65945;53.148;17.956;2023-06-22T10:29:11;4.00;;;1.90;;
77010;SDS011;65945;53.148;17.956;2023-06-22T10:31:38;3.60;;;1.60;;
77010;SDS011;65945;53.148;17.956;2023-06-22T10:34:04;4.40;;;1.70;;
77010;SDS011;65945;53.148;17.956;2023-06-22T10:36:31;4.10;;;1.60;;
77010;SDS011;65945;53.148;17.956;2023-06-22T10:38:58;3.00;;;1.80;;
77010;SDS011;65945;53.148;17.956;2023-06-22T10:41:25;4.10;;;1.80;;
77010;SDS011;65945;53.148;17.956;2023-06-22T10:43:52;3.40;;;1.50;;
77010;SDS011;65945;53.148;17.956;2023-06-22T10:46:18;3.50;;;1.60;;
77010;SDS011;65945;53.148;17.956;2023-06-22T10:48:45;2.90;;;1.60;;
77010;SDS011;65945;53.148;17.956;2023-06-22T10:51:12;3.60;;;1.90;;
77010;SDS011;65945;53.148;17.956;2023-06-22T10:53:38;3.10;;;1.50;;
77010;SDS011;65945;53.148;17.956;2023-06-22T10:56:05;3.20;;;1.60;;
77010;SDS011;65945;53.148;17.956;2023-06-22T10:58:31;4.40;;;1.70;;
77010;SDS011;65945;53.148;17.956;2023-06-22T11:00:58;3.40;;;1.90;;
77010;SDS011;65945;53.148;17.956;2023-06-22T11:03:25;2.90;;;1.60;;
77010;SDS011;65945;53.148;17.956;2023-06-22T11:05:52;3.30;;;1.70;;
77010;SDS011;65945;53.148;17.956;2023-06-22T11:08:18;4.20;;;1.60;;
77010;SDS011;65945;53.148;17.956;2023-06-22T11:10:45;2.90;;;1.50;;
77010;SDS011;65945;53.148;17.956;2023-06-22T11:13:11;5.60;;;1.60;;
77010;SDS011;65945;53.148;17.956;2023-06-22T11:15:38;4.00;;;1.50;;
77010;SDS011;65945;53.148;17.956;2023-06-22T11:18:06;4.90;;;2.00;;
77010;SDS011;65945;53.148;17.956;2023-06-22T11:20:33;4.60;;;1.80;;
77010;SDS011;65945;53.148;17.956;2023-06-22T11:23:05;3.60;;;1.80;;
77010;SDS011;65945;53.148;17.956;2023-06-22T11:25:34;2.70;;;1.40;;
77010;SDS011;65945;53.148;17.956;2023-06-22T11:28:02;2.40;;;1.50;;
77010;SDS011;65945;53.148;17.956;2023-06-22T11:30:30;5.00;;;1.50;;
77010;SDS011;65945;53.148;17.956;2023-06-22T11:32:58;3.50;;;1.60;;
77010;SDS011;65945;53.148;17.956;2023-06-22T11:35:25;4.30;;;1.60;;
77010;SDS011;65945;53.148;17.956;2023-06-22T11:37:52;2.90;;;1.50;;
77010;SDS011;65945;53.148;17.956;2023-06-22T11:40:19;2.80;;;1.70;;
77010;SDS011;65945;53.148;17.956;2023-06-22T11:42:45;3.00;;;1.60;;
77010;SDS011;65945;53.148;17.956;2023-06-22T11:45:12;2.70;;;1.40;;
77010;SDS011;65945;53.148;17.956;2023-06-22T11:47:39;5.10;;;1.80;;
77010;SDS011;65945;53.148;17.956;2023-06-22T11:50:06;4.70;;;1.60;;
77010;SDS011;65945;53.148;17.956;2023-06-22T11:52:33;2.70;;;1.50;;
77010;SDS011;65945;53.148;17.956;2023-06-22T11:55:02;3.20;;;1.30;;
77010;SDS011;65945;53.148;17.956;2023-06-22T11:57:35;4.60;;;2.00;;
77010;SDS011;65945;53.148;17.956;2023-06-22T12:00:03;4.30;;;1.80;;
77010;SDS011;65945;53.148;17.956;2023-06-22T12:02:42;5.90;;;1.70;;
77010;SDS011;65945;53.148;17.956;2023-06-22T12:05:09;3.80;;;1.40;;
77010;SDS011;65945;53.148;17.956;2023-06-22T12:07:36;3.70;;;1.60;;
77010;SDS011;65945;53.148;17.956;2023-06-22T12:10:04;4.50;;;1.50;;
77010;SDS011;65945;53.148;17.956;2023-06-22T12:12:31;5.80;;;1.50;;
77010;SDS011;65945;53.148;17.956;2023-06-22T12:14:57;4.70;;;1.60;;
77010;SDS011;65945;53.148;17.956;2023-06-22T12:17:24;6.10;;;1.70;;
77010;SDS011;65945;53.148;17.956;2023-06-22T12:19:51;3.60;;;1.80;;
77010;SDS011;65945;53.148;17.956;2023-06-22T12:22:17;4.10;;;1.60;;
77010;SDS011;65945;53.148;17.956;2023-06-22T12:24:44;3.50;;;1.50;;
77010;SDS011;65945;53.148;17.956;2023-06-22T12:27:10;2.60;;;1.50;;
77010;SDS011;65945;53.148;17.956;2023-06-22T12:29:37;8.50;;;1.40;;
77010;SDS011;65945;53.148;17.956;2023-06-22T12:32:03;4.20;;;1.40;;
77010;SDS011;65945;53.148;17.956;2023-06-22T12:34:30;4.40;;;1.90;;
77010;SDS011;65945;53.148;17.956;2023-06-22T12:36:57;3.40;;;1.50;;
77010;SDS011;65945;53.148;17.956;2023-06-22T12:39:23;5.10;;;1.80;;
77010;SDS011;65945;53.148;17.956;2023-06-22T12:41:50;4.50;;;1.90;;
77010;SDS011;65945;53.148;17.956;2023-06-22T12:44:17;3.80;;;1.70;;
77010;SDS011;65945;53.148;17.956;2023-06-22T12:46:43;2.90;;;1.50;;
77010;SDS011;65945;53.148;17.956;2023-06-22T12:49:10;4.10;;;1.60;;
77010;SDS011;65945;53.148;17.956;2023-06-22T12:51:39;3.80;;;1.70;;
77010;SDS011;65945;53.148;17.956;2023-06-22T12:54:07;2.50;;;1.60;;
77010;SDS011;65945;53.148;17.956;2023-06-22T12:56:34;2.50;;;1.60;;
77010;SDS011;65945;53.148;17.956;2023-06-22T12:59:01;4.30;;;1.60;;
77010;SDS011;65945;53.148;17.956;2023-06-22T13:01:28;3.70;;;1.70;;
77010;SDS011;65945;53.148;17.956;2023-06-22T13:03:54;2.70;;;1.70;;
77010;SDS011;65945;53.148;17.956;2023-06-22T13:06:21;4.40;;;1.80;;
77010;SDS011;65945;53.148;17.956;2023-06-22T13:08:47;6.00;;;1.70;;
77010;SDS011;65945;53.148;17.956;2023-06-22T13:11:14;4.20;;;1.70;;
77010;SDS011;65945;53.148;17.956;2023-06-22T13:13:41;4.60;;;1.70;;
77010;SDS011;65945;53.148;17.956;2023-06-22T13:16:07;13.80;;;2.10;;
77010;SDS011;65945;53.148;17.956;2023-06-22T13:18:34;4.00;;;1.80;;
77010;SDS011;65945;53.148;17.956;2023-06-22T13:21:02;2.80;;;1.50;;
77010;SDS011;65945;53.148;17.956;2023-06-22T13:23:29;5.10;;;1.60;;
77010;SDS011;65945;53.148;17.956;2023-06-22T13:25:57;3.40;;;1.50;;
77010;SDS011;65945;53.148;17.956;2023-06-22T13:28:24;3.30;;;1.50;;
77010;SDS011;65945;53.148;17.956;2023-06-22T13:30:51;4.60;;;1.70;;
77010;SDS011;65945;53.148;17.956;2023-06-22T13:33:17;2.90;;;1.80;;
77010;SDS011;65945;53.148;17.956;2023-06-22T13:35:44;13.60;;;2.40;;
77010;SDS011;65945;53.148;17.956;2023-06-22T13:38:10;4.30;;;1.80;;
77010;SDS011;65945;53.148;17.956;2023-06-22T13:40:37;3.30;;;2.00;;
77010;SDS011;65945;53.148;17.956;2023-06-22T13:43:04;13.20;;;2.10;;
77010;SDS011;65945;53.148;17.956;2023-06-22T13:45:31;7.90;;;2.00;;
77010;SDS011;65945;53.148;17.956;2023-06-22T13:47:58;3.90;;;1.80;;
77010;SDS011;65945;53.148;17.956;2023-06-22T13:50:25;3.80;;;1.60;;
77010;SDS011;65945;53.148;17.956;2023-06-22T13:52:52;3.20;;;1.70;;
77010;SDS011;65945;53.148;17.956;2023-06-22T13:55:18;6.60;;;2.20;;
77010;SDS011;65945;53.148;17.956;2023-06-22T13:57:47;4.30;;;2.10;;
77010;SDS011;65945;53.148;17.956;2023-06-22T14:00:14;28.20;;;2.80;;
77010;SDS011;65945;53.148;17.956;2023-06-22T14:02:41;4.40;;;1.90;;
77010;SDS011;65945;53.148;17.956;2023-06-22T14:05:08;3.70;;;1.90;;
77010;SDS011;65945;53.148;17.956;2023-06-22T14:07:34;3.80;;;1.80;;
77010;SDS011;65945;53.148;17.956;2023-06-22T14:10:01;3.80;;;1.80;;
77010;SDS011;65945;53.148;17.956;2023-06-22T14:12:28;3.60;;;1.40;;
77010;SDS011;65945;53.148;17.956;2023-06-22T14:14:54;5.10;;;1.90;;
77010;SDS011;65945;53.148;17.956;2023-06-22T14:17:21;4.60;;;2.10;;
77010;SDS011;65945;53.148;17.956;2023-06-22T14:19:52;3.80;;;1.80;;
77010;SDS011;65945;53.148;17.956;2023-06-22T14:22:19;4.50;;;2.20;;
77010;SDS011;65945;53.148;17.956;2023-06-22T14:24:47;3.40;;;1.90;;
77010;SDS011;65945;53.148;17.956;2023-06-22T14:27:14;4.10;;;1.90;;
77010;SDS011;65945;53.148;17.956;2023-06-22T14:29:41;6.70;;;2.00;;
77010;SDS011;65945;53.148;17.956;2023-06-22T14:32:08;4.00;;;1.80;;
77010;SDS011;65945;53.148;17.956;2023-06-22T14:34:35;5.80;;;1.90;;
77010;SDS011;65945;53.148;17.956;2023-06-22T14:37:08;3.00;;;1.80;;
77010;SDS011;65945;53.148;17.956;2023-06-22T14:39:36;4.50;;;1.70;;